Time;durP1;ratioP1;P1;durP2;ratioP2;P2;SDS_P1;SDS_P2;PMS_P1;PMS_P2;Temp;Humidity;BMP_temperature;BMP_pressure;BME280_temperature;BME280_humidity;BME280_pressure;Samples;Min_cycle;Max_cycle;Signal;HPM_P1;HPM_P2
2024/01/20 00:00:25;;;;;;;17.17;11.37;;;-1.20;99.90;;;;;;5120230;28;20486;-61
2024/01/20 00:02:52;;;;;;;16.10;11.80;;;-1.30;99.90;;;;;;5119884;28;20522;-60
2024/01/20 00:05:24;;;;;;;15.27;11.10;;;-1.30;99.90;;;;;;5115859;28;20983;-61
2024/01/20 00:07:52;;;;;;;17.40;9.90;;;-1.30;99.90;;;;;;5117153;28;20802;-61
2024/01/20 00:10:19;;;;;;;14.83;10.20;;;-1.30;99.90;;;;;;5116806;27;20486;-61
2024/01/20 00:12:46;;;;;;;17.27;10.10;;;-1.40;99.90;;;;;;5117707;28;20922;-60
2024/01/20 00:15:14;;;;;;;11.63;10.10;;;-1.40;99.90;;;;;;5119467;28;20457;-61
2024/01/20 00:17:41;;;;;;;17.73;11.63;;;-1.50;99.90;;;;;;5119337;28;20519;-61
2024/01/20 00:20:09;;;;;;;16.57;11.30;;;-1.40;99.90;;;;;;5118795;28;20456;-61
2024/01/20 00:22:38;;;;;;;17.37;11.70;;;-1.50;99.90;;;;;;5118998;28;20464;-60
2024/01/20 00:25:08;;;;;;;19.93;11.10;;;-1.50;99.90;;;;;;5118198;27;20539;-61
2024/01/20 00:27:36;;;;;;;17.63;12.07;;;-1.50;99.90;;;;;;5118221;28;20892;-61
2024/01/20 00:30:04;;;;;;;20.67;11.70;;;-1.50;99.90;;;;;;5118100;28;20494;-59
2024/01/20 00:32:32;;;;;;;16.03;10.93;;;-1.60;99.90;;;;;;5117426;28;20704;-57
2024/01/20 00:34:59;;;;;;;15.80;11.10;;;-1.60;99.90;;;;;;5116640;28;20463;-59
2024/01/20 00:37:26;;;;;;;19.03;12.30;;;-1.60;99.90;;;;;;5116855;28;20462;-61
2024/01/20 00:39:55;;;;;;;19.03;11.00;;;-1.70;99.90;;;;;;5116814;28;20525;-60
2024/01/20 00:42:22;;;;;;;15.93;10.50;;;-1.70;99.90;;;;;;5117495;28;20494;-61
2024/01/20 00:44:50;;;;;;;13.70;9.73;;;-1.70;99.90;;;;;;5118766;28;20459;-60
2024/01/20 00:47:17;;;;;;;18.73;10.63;;;-1.70;99.90;;;;;;5119761;28;20911;-61
2024/01/20 00:49:44;;;;;;;15.40;11.03;;;-1.80;99.90;;;;;;5119337;27;20434;-61
2024/01/20 00:52:12;;;;;;;15.53;11.20;;;-1.80;99.90;;;;;;5119403;27;20426;-61
2024/01/20 00:54:39;;;;;;;18.50;12.00;;;-1.80;99.90;;;;;;5119674;28;20459;-61
2024/01/20 00:57:08;;;;;;;16.43;12.07;;;-1.80;99.90;;;;;;5119429;28;20881;-61
2024/01/20 00:59:35;;;;;;;15.07;10.93;;;-1.90;99.90;;;;;;5119725;27;20426;-60
2024/01/20 01:02:03;;;;;;;18.17;11.40;;;-1.80;99.90;;;;;;5119034;28;20455;-61
2024/01/20 01:04:30;;;;;;;19.50;10.40;;;-1.90;99.90;;;;;;5119266;28;20455;-59
2024/01/20 01:06:57;;;;;;;17.33;11.30;;;-1.90;99.90;;;;;;5118734;28;20488;-61
2024/01/20 01:09:24;;;;;;;13.93;10.90;;;-1.90;99.90;;;;;;5118924;28;20487;-60
2024/01/20 01:11:52;;;;;;;14.27;10.67;;;-2.00;99.90;;;;;;5118906;28;20466;-60
2024/01/20 01:14:21;;;;;;;16.23;12.20;;;-2.00;99.90;;;;;;5118536;28;20429;-60
2024/01/20 01:16:48;;;;;;;23.07;12.10;;;-2.00;99.90;;;;;;5119191;28;20442;-60
2024/01/20 01:19:16;;;;;;;17.13;11.47;;;-2.00;99.90;;;;;;5119280;28;20457;-61
2024/01/20 01:21:43;;;;;;;21.37;11.53;;;-2.10;99.90;;;;;;5118512;28;20521;-60
2024/01/20 01:24:10;;;;;;;16.23;11.13;;;-2.10;99.90;;;;;;5118983;28;20504;-60
2024/01/20 01:26:38;;;;;;;17.83;12.60;;;-2.10;99.90;;;;;;5118702;28;20804;-60
2024/01/20 01:29:06;;;;;;;17.03;11.23;;;-2.10;99.90;;;;;;5119055;28;20806;-60
2024/01/20 01:31:35;;;;;;;20.73;11.30;;;-2.10;99.90;;;;;;5119231;28;20546;-60
2024/01/20 01:34:02;;;;;;;20.63;11.27;;;-2.10;99.90;;;;;;5118464;28;20950;-60
2024/01/20 01:36:30;;;;;;;14.40;10.57;;;-2.10;99.90;;;;;;5118434;28;20873;-60
2024/01/20 01:38:57;;;;;;;14.83;11.33;;;-2.20;99.90;;;;;;5118202;28;20522;-60
2024/01/20 01:41:24;;;;;;;15.50;10.93;;;-2.20;99.90;;;;;;5118688;28;20528;-60
2024/01/20 01:43:51;;;;;;;22.17;13.03;;;-2.20;99.90;;;;;;5118164;28;20543;-60
2024/01/20 01:46:19;;;;;;;22.63;12.00;;;-2.20;99.90;;;;;;5118501;28;20504;-60
2024/01/20 01:48:48;;;;;;;16.67;11.23;;;-2.30;99.90;;;;;;5118499;28;20508;-60
2024/01/20 01:51:15;;;;;;;15.90;9.73;;;-2.30;99.90;;;;;;5118638;28;20559;-60
2024/01/20 01:53:43;;;;;;;15.17;10.47;;;-2.40;99.90;;;;;;5117839;28;20453;-60
2024/01/20 01:56:12;;;;;;;15.50;11.27;;;-2.40;99.90;;;;;;5118006;28;20505;-60
2024/01/20 01:58:39;;;;;;;17.83;12.50;;;-2.40;99.90;;;;;;5118500;28;20535;-60
2024/01/20 02:01:07;;;;;;;22.83;11.87;;;-2.50;99.90;;;;;;5118283;28;20466;-59
2024/01/20 02:03:34;;;;;;;21.93;12.77;;;-2.50;99.90;;;;;;5118432;28;20558;-60
2024/01/20 02:06:03;;;;;;;19.33;11.97;;;-2.50;99.90;;;;;;5118144;28;20460;-61
2024/01/20 02:08:30;;;;;;;16.13;11.27;;;-2.40;99.90;;;;;;5117747;28;20578;-60
2024/01/20 02:10:58;;;;;;;17.43;12.40;;;-2.40;99.90;;;;;;5118139;28;20455;-60
2024/01/20 02:13:25;;;;;;;23.43;11.63;;;-2.50;99.90;;;;;;5118139;28;20923;-60
2024/01/20 02:15:53;;;;;;;19.33;11.60;;;-2.40;99.90;;;;;;5117529;28;20430;-60
2024/01/20 02:18:22;;;;;;;17.20;11.87;;;-2.30;99.90;;;;;;5118198;28;20434;-60
2024/01/20 02:20:50;;;;;;;18.47;11.40;;;-2.40;99.90;;;;;;5117971;28;20797;-60
2024/01/20 02:23:18;;;;;;;21.10;10.67;;;-2.50;99.90;;;;;;5117976;28;20534;-59
2024/01/20 02:25:46;;;;;;;19.83;11.70;;;-2.50;99.90;;;;;;5117680;28;20487;-60
2024/01/20 02:28:14;;;;;;;17.33;11.93;;;-2.50;99.90;;;;;;5117786;28;20880;-60
2024/01/20 02:30:41;;;;;;;17.00;11.40;;;-2.60;99.90;;;;;;5117928;28;20752;-60
2024/01/20 02:33:08;;;;;;;15.03;9.83;;;-2.60;99.90;;;;;;5117858;28;20493;-60
2024/01/20 02:35:36;;;;;;;17.10;11.07;;;-2.50;99.90;;;;;;5117840;28;20521;-60
2024/01/20 02:38:04;;;;;;;13.37;10.50;;;-2.50;99.90;;;;;;5117600;28;20490;-59
2024/01/20 02:40:32;;;;;;;21.13;12.27;;;-2.60;99.90;;;;;;5117981;28;20464;-60
2024/01/20 02:42:59;;;;;;;14.53;10.20;;;-2.60;99.90;;;;;;5118012;28;20869;-60
2024/01/20 02:45:27;;;;;;;13.43;9.50;;;-2.60;99.90;;;;;;5117757;28;20804;-60
2024/01/20 02:47:54;;;;;;;18.50;11.07;;;-2.60;99.90;;;;;;5117478;28;20575;-60
2024/01/20 02:50:21;;;;;;;19.60;11.30;;;-2.60;99.90;;;;;;5121123;28;20872;-60
2024/01/20 02:52:49;;;;;;;13.13;9.60;;;-2.60;99.90;;;;;;5121876;28;20458;-60
2024/01/20 02:55:16;;;;;;;16.37;10.13;;;-2.60;99.90;;;;;;5121392;27;20487;-60
2024/01/20 02:57:45;;;;;;;15.27;10.63;;;-2.60;99.90;;;;;;5121501;28;20549;-60
2024/01/20 03:00:13;;;;;;;14.03;9.27;;;-2.60;99.90;;;;;;5121491;28;20451;-60
2024/01/20 03:02:40;;;;;;;17.43;9.67;;;-2.60;99.90;;;;;;5121428;28;20458;-60
2024/01/20 03:05:08;;;;;;;13.60;9.77;;;-2.60;99.90;;;;;;5121685;28;20926;-60
2024/01/20 03:07:35;;;;;;;15.00;10.67;;;-2.70;99.90;;;;;;5121829;28;20574;-61
2024/01/20 03:10:03;;;;;;;16.07;10.10;;;-2.70;99.90;;;;;;5121188;28;20479;-59
2024/01/20 03:12:30;;;;;;;14.10;10.47;;;-2.70;99.90;;;;;;5121059;28;20427;-60
2024/01/20 03:14:59;;;;;;;16.03;10.20;;;-2.70;99.90;;;;;;5121358;28;20512;-60
2024/01/20 03:17:26;;;;;;;16.43;10.70;;;-2.70;99.90;;;;;;5121563;28;20451;-60
2024/01/20 03:19:54;;;;;;;14.57;9.70;;;-2.70;99.90;;;;;;5121667;27;20455;-60
2024/01/20 03:22:21;;;;;;;15.17;9.90;;;-2.70;99.90;;;;;;5121205;28;20430;-60
2024/01/20 03:24:48;;;;;;;14.77;9.50;;;-2.70;99.90;;;;;;5121596;28;20459;-60
2024/01/20 03:27:17;;;;;;;14.60;10.57;;;-2.80;99.90;;;;;;5121405;28;20585;-60
2024/01/20 03:29:45;;;;;;;12.10;9.70;;;-2.80;99.90;;;;;;5120666;28;20550;-60
2024/01/20 03:32:13;;;;;;;13.47;9.90;;;-2.70;99.90;;;;;;5120951;28;20543;-60
2024/01/20 03:34:40;;;;;;;14.47;9.50;;;-2.70;99.90;;;;;;5121089;28;20459;-60
2024/01/20 03:37:08;;;;;;;15.00;9.50;;;-2.80;99.90;;;;;;5121296;28;20434;-60
2024/01/20 03:39:35;;;;;;;13.60;9.50;;;-2.80;99.90;;;;;;5121127;28;20554;-60
2024/01/20 03:42:02;;;;;;;15.63;10.40;;;-2.70;99.90;;;;;;5121402;28;20455;-60
2024/01/20 03:44:30;;;;;;;17.37;10.50;;;-2.80;99.90;;;;;;5120868;28;20487;-60
2024/01/20 03:46:57;;;;;;;14.20;10.17;;;-2.80;99.90;;;;;;5121142;28;20512;-60
2024/01/20 03:49:25;;;;;;;15.33;11.10;;;-2.70;99.90;;;;;;5120520;28;20551;-59
2024/01/20 03:51:52;;;;;;;15.07;10.07;;;-2.70;99.90;;;;;;5120119;28;20479;-59
2024/01/20 03:54:20;;;;;;;13.43;9.87;;;-2.80;99.90;;;;;;5119759;28;20910;-60
2024/01/20 03:56:47;;;;;;;17.43;10.80;;;-2.80;99.90;;;;;;5120181;28;20456;-60
2024/01/20 03:59:14;;;;;;;13.90;9.90;;;-2.80;99.90;;;;;;5120032;28;20481;-59
2024/01/20 04:01:41;;;;;;;13.93;10.40;;;-2.90;99.90;;;;;;5118430;28;20477;-60
2024/01/20 04:04:09;;;;;;;18.30;10.83;;;-2.90;99.90;;;;;;5119928;28;20487;-60
2024/01/20 04:06:37;;;;;;;14.13;9.50;;;-3.00;99.90;;;;;;5120371;28;20491;-60
2024/01/20 04:09:05;;;;;;;16.57;11.50;;;-3.00;99.90;;;;;;5119956;28;20483;-60
2024/01/20 04:11:32;;;;;;;17.73;9.37;;;-3.00;99.90;;;;;;5120782;28;20456;-60
2024/01/20 04:13:59;;;;;;;14.13;9.47;;;-3.10;99.90;;;;;;5120435;28;20495;-60
2024/01/20 04:16:27;;;;;;;16.40;11.03;;;-3.10;99.90;;;;;;5120142;28;20513;-60
2024/01/20 04:18:54;;;;;;;12.63;9.70;;;-3.20;99.90;;;;;;5120184;28;20456;-60
2024/01/20 04:21:21;;;;;;;12.83;9.47;;;-3.10;99.90;;;;;;5120188;28;20466;-60
2024/01/20 04:23:50;;;;;;;14.20;10.47;;;-3.20;99.90;;;;;;5119845;28;20531;-60
2024/01/20 04:26:17;;;;;;;13.97;9.93;;;-3.20;99.90;;;;;;5119658;28;20434;-60
2024/01/20 04:28:45;;;;;;;15.00;10.57;;;-3.20;99.90;;;;;;5119973;28;20751;-60
2024/01/20 04:31:12;;;;;;;17.37;10.27;;;-3.20;99.90;;;;;;5120180;28;20899;-60
2024/01/20 04:33:40;;;;;;;15.20;9.83;;;-3.30;99.90;;;;;;5120024;28;20887;-60
2024/01/20 04:36:08;;;;;;;15.23;10.40;;;-3.20;99.90;;;;;;5120001;28;20499;-60
2024/01/20 04:38:36;;;;;;;15.63;10.03;;;-3.30;99.90;;;;;;5119603;28;20456;-60
2024/01/20 04:41:04;;;;;;;16.13;9.83;;;-3.20;99.90;;;;;;5119932;28;20538;-60
2024/01/20 04:43:32;;;;;;;15.83;9.87;;;-3.30;99.90;;;;;;5119853;28;20451;-60
2024/01/20 04:45:58;;;;;;;16.70;10.10;;;-3.20;99.90;;;;;;5119251;28;20955;-60
2024/01/20 04:48:25;;;;;;;14.83;10.50;;;-3.30;99.90;;;;;;5119389;28;20525;-60
2024/01/20 04:50:52;;;;;;;13.43;9.30;;;-3.30;99.90;;;;;;5119750;28;20740;-60
2024/01/20 04:53:19;;;;;;;16.90;9.97;;;-3.30;99.90;;;;;;5119920;28;20470;-60
2024/01/20 04:55:47;;;;;;;14.77;9.37;;;-3.30;99.90;;;;;;5119319;28;20550;-60
2024/01/20 04:58:16;;;;;;;16.03;9.33;;;-3.30;99.90;;;;;;5119319;28;20906;-60
2024/01/20 05:00:44;;;;;;;13.23;8.97;;;-3.30;99.90;;;;;;5119370;28;20902;-60
2024/01/20 05:03:12;;;;;;;12.97;8.97;;;-3.20;99.90;;;;;;5119194;28;20873;-60
2024/01/20 05:05:40;;;;;;;16.23;9.57;;;-3.30;99.90;;;;;;5119451;28;20775;-60
2024/01/20 05:08:07;;;;;;;14.10;10.27;;;-3.30;99.90;;;;;;5119124;28;20923;-61
2024/01/20 05:10:34;;;;;;;15.23;10.13;;;-3.30;99.90;;;;;;5118725;28;20834;-58
2024/01/20 05:13:03;;;;;;;13.23;9.30;;;-3.30;99.90;;;;;;5118600;28;20459;-60
2024/01/20 05:15:32;;;;;;;17.73;9.60;;;-3.30;99.90;;;;;;5119406;28;20506;-60
2024/01/20 05:18:01;;;;;;;13.80;9.10;;;-3.30;99.90;;;;;;5119216;28;20956;-60
2024/01/20 05:20:28;;;;;;;15.73;10.33;;;-3.40;99.90;;;;;;5118835;28;20935;-60
2024/01/20 05:22:55;;;;;;;17.03;9.60;;;-3.40;99.90;;;;;;5119025;28;20821;-60
2024/01/20 05:25:22;;;;;;;12.33;8.87;;;-3.50;99.90;;;;;;5118676;28;20436;-60
2024/01/20 05:27:49;;;;;;;13.70;10.00;;;-3.50;99.90;;;;;;5118884;28;20462;-60
2024/01/20 05:30:16;;;;;;;12.40;9.00;;;-3.50;99.90;;;;;;5118788;28;20466;-60
2024/01/20 05:32:45;;;;;;;16.43;9.63;;;-3.50;99.90;;;;;;5118632;28;20479;-60
2024/01/20 05:35:12;;;;;;;15.40;10.97;;;-3.50;99.90;;;;;;5119239;28;20469;-60
2024/01/20 05:37:39;;;;;;;12.57;9.40;;;-3.60;99.90;;;;;;5118907;28;20470;-60
2024/01/20 05:40:08;;;;;;;12.07;9.13;;;-3.60;99.90;;;;;;5117612;28;20487;-60
2024/01/20 05:42:35;;;;;;;14.97;9.00;;;-3.60;99.90;;;;;;5118323;28;20862;-58
2024/01/20 05:45:04;;;;;;;14.93;10.30;;;-3.60;99.90;;;;;;5098219;28;20543;-60
2024/01/20 05:47:31;;;;;;;14.60;9.50;;;-3.60;99.90;;;;;;5100167;28;20531;-60
2024/01/20 05:49:59;;;;;;;15.27;9.43;;;-3.60;99.90;;;;;;5118157;28;20499;-60
2024/01/20 05:52:27;;;;;;;12.30;9.23;;;-3.60;99.90;;;;;;5117738;28;20448;-60
2024/01/20 05:54:54;;;;;;;12.70;8.97;;;-3.70;99.90;;;;;;5118258;28;20555;-60
2024/01/20 05:57:21;;;;;;;13.00;9.33;;;-3.60;99.90;;;;;;5117803;28;20530;-60
2024/01/20 05:59:48;;;;;;;16.97;10.03;;;-3.70;99.90;;;;;;5118158;28;20516;-60
2024/01/20 06:02:15;;;;;;;14.10;10.47;;;-3.70;99.90;;;;;;5117635;28;20455;-60
2024/01/20 06:04:43;;;;;;;16.83;10.20;;;-3.70;99.90;;;;;;5118165;28;20542;-60
2024/01/20 06:07:11;;;;;;;13.13;10.17;;;-3.70;99.90;;;;;;5118301;28;21002;-60
2024/01/20 06:09:39;;;;;;;15.50;10.10;;;-3.80;99.90;;;;;;5118011;28;20570;-60
2024/01/20 06:12:07;;;;;;;18.40;10.97;;;-3.80;99.90;;;;;;5118025;28;20513;-58
2024/01/20 06:14:35;;;;;;;13.70;10.17;;;-3.70;99.90;;;;;;5117250;28;20481;-60
2024/01/20 06:17:02;;;;;;;18.37;11.20;;;-3.80;99.90;;;;;;5118178;28;20456;-60
2024/01/20 06:19:30;;;;;;;16.73;11.47;;;-3.90;99.90;;;;;;5117519;28;20455;-60
2024/01/20 06:21:57;;;;;;;16.70;10.47;;;-4.00;99.90;;;;;;5118020;28;20460;-60
2024/01/20 06:24:25;;;;;;;14.07;10.30;;;-3.90;99.90;;;;;;5117383;28;20904;-60
2024/01/20 06:26:52;;;;;;;15.67;11.53;;;-3.90;99.90;;;;;;5118139;28;20524;-60
2024/01/20 06:29:20;;;;;;;19.93;11.60;;;-3.90;99.90;;;;;;5118125;28;20550;-60
2024/01/20 06:31:47;;;;;;;14.00;10.73;;;-3.80;99.90;;;;;;5117758;28;20934;-60
2024/01/20 06:34:14;;;;;;;13.67;10.30;;;-3.90;99.90;;;;;;5117705;28;20460;-60
2024/01/20 06:36:41;;;;;;;14.53;11.37;;;-3.80;99.90;;;;;;5116908;28;20487;-61
2024/01/20 06:39:08;;;;;;;16.03;10.77;;;-3.90;99.90;;;;;;5117516;28;20797;-61
2024/01/20 06:41:37;;;;;;;15.07;10.37;;;-3.90;99.90;;;;;;5117809;28;20827;-62
2024/01/20 06:44:05;;;;;;;15.83;10.47;;;-4.00;99.90;;;;;;5117445;28;20479;-61
2024/01/20 06:46:32;;;;;;;15.90;9.93;;;-4.10;99.90;;;;;;5117348;28;20459;-62
2024/01/20 06:48:59;;;;;;;58.00;34.80;;;-4.10;99.90;;;;;;5117543;28;20772;-61
2024/01/20 06:51:27;;;;;;;36.47;26.23;;;-4.20;99.90;;;;;;5117770;28;20491;-61
2024/01/20 06:53:57;;;;;;;17.23;11.80;;;-4.20;99.90;;;;;;5117360;28;20482;-62
2024/01/20 06:56:24;;;;;;;15.57;10.50;;;-4.30;99.90;;;;;;5117109;28;20517;-62
2024/01/20 06:58:53;;;;;;;13.93;10.67;;;-4.30;99.90;;;;;;5117766;28;20430;-61
2024/01/20 07:01:20;;;;;;;16.37;11.60;;;-4.30;99.90;;;;;;5117626;28;20455;-61
2024/01/20 07:03:47;;;;;;;15.17;11.47;;;-4.30;99.90;;;;;;5117065;28;20810;-61
2024/01/20 07:06:15;;;;;;;18.07;10.43;;;-4.30;99.90;;;;;;5117392;28;20502;-61
2024/01/20 07:08:43;;;;;;;15.43;11.87;;;-4.40;99.90;;;;;;5116965;28;21000;-61
2024/01/20 07:11:10;;;;;;;16.13;10.73;;;-4.40;99.90;;;;;;5117577;28;20747;-61
2024/01/20 07:13:38;;;;;;;18.23;11.27;;;-4.50;99.90;;;;;;5116559;28;20455;-61
2024/01/20 07:16:11;;;;;;;17.23;12.03;;;-4.50;99.90;;;;;;5116802;28;20434;-61
2024/01/20 07:18:39;;;;;;;16.47;10.50;;;-4.40;99.90;;;;;;5117356;28;20448;-60
2024/01/20 07:21:09;;;;;;;16.43;12.40;;;-4.40;99.90;;;;;;5116756;28;20495;-61
2024/01/20 07:23:37;;;;;;;17.87;9.90;;;-4.40;99.90;;;;;;5117430;28;20732;-61
2024/01/20 07:26:05;;;;;;;16.37;10.93;;;-4.50;99.90;;;;;;5117003;28;20528;-62
2024/01/20 07:28:32;;;;;;;15.47;10.53;;;-4.50;99.90;;;;;;5117228;28;20491;-62
2024/01/20 07:30:59;;;;;;;16.73;11.60;;;-4.50;99.90;;;;;;5117159;28;20963;-61
2024/01/20 07:33:28;;;;;;;16.43;10.33;;;-4.50;99.90;;;;;;5116307;28;20482;-61
2024/01/20 07:35:55;;;;;;;16.63;10.43;;;-4.60;99.90;;;;;;5117724;28;20478;-61
2024/01/20 07:38:22;;;;;;;17.47;10.70;;;-4.60;99.90;;;;;;5120424;28;20537;-62
2024/01/20 07:40:53;;;;;;;13.50;9.47;;;-4.70;99.90;;;;;;5120506;28;20500;-61
2024/01/20 07:43:20;;;;;;;15.70;11.67;;;-4.70;99.90;;;;;;5120991;28;20433;-61
2024/01/20 07:45:48;;;;;;;18.90;12.50;;;-4.80;99.90;;;;;;5120666;28;20744;-61
2024/01/20 07:48:15;;;;;;;16.10;11.90;;;-4.80;99.90;;;;;;5120785;28;20493;-61
2024/01/20 07:50:44;;;;;;;15.90;11.23;;;-4.80;99.90;;;;;;5120492;28;20747;-61
2024/01/20 07:53:11;;;;;;;17.97;13.00;;;-4.90;99.90;;;;;;5120773;28;20465;-58
2024/01/20 07:55:38;;;;;;;14.67;11.17;;;-4.80;99.90;;;;;;5120413;28;20453;-61
2024/01/20 07:58:06;;;;;;;15.03;11.73;;;-4.80;99.90;;;;;;5120280;28;20465;-61
2024/01/20 08:00:33;;;;;;;17.30;11.23;;;-4.90;99.90;;;;;;5120446;27;20872;-62
2024/01/20 08:03:00;;;;;;;15.07;11.70;;;-4.90;99.90;;;;;;5120513;27;20872;-61
2024/01/20 08:05:28;;;;;;;19.07;11.20;;;-4.80;99.90;;;;;;5120531;28;20470;-60
2024/01/20 08:07:57;;;;;;;19.73;11.90;;;-4.80;99.90;;;;;;5120318;28;20483;-61
2024/01/20 08:10:24;;;;;;;15.00;11.10;;;-4.70;99.90;;;;;;5119632;28;20927;-61
2024/01/20 08:12:52;;;;;;;17.60;11.70;;;-4.60;99.90;;;;;;5118409;28;20465;-61
2024/01/20 08:15:20;;;;;;;18.30;12.63;;;-4.60;99.90;;;;;;5118331;27;20738;-61
2024/01/20 08:17:47;;;;;;;16.57;12.10;;;-4.60;99.90;;;;;;5118254;28;20466;-59
2024/01/20 08:20:15;;;;;;;19.17;12.07;;;-4.50;99.90;;;;;;5118800;28;20856;-58
2024/01/20 08:22:42;;;;;;;16.80;11.73;;;-4.40;99.90;;;;;;5117237;27;20860;-60
2024/01/20 08:25:13;;;;;;;14.63;10.50;;;-4.40;99.90;;;;;;5118689;28;20865;-61
2024/01/20 08:27:40;;;;;;;15.93;11.03;;;-4.30;99.90;;;;;;5118912;28;20949;-61
2024/01/20 08:30:08;;;;;;;14.93;10.40;;;-4.30;99.90;;;;;;5118181;28;20553;-61
2024/01/20 08:32:37;;;;;;;17.63;10.23;;;-4.10;99.90;;;;;;5117928;28;20437;-61
2024/01/20 08:35:05;;;;;;;18.37;10.93;;;-4.00;99.90;;;;;;5118267;28;20880;-54
2024/01/20 08:37:32;;;;;;;15.23;10.70;;;-3.90;99.90;;;;;;5119778;28;20485;-51
2024/01/20 08:39:59;;;;;;;14.20;10.17;;;-3.80;99.90;;;;;;5120230;28;20497;-49
2024/01/20 08:42:28;;;;;;;18.30;14.37;;;-3.60;99.90;;;;;;5120058;28;20461;-53
2024/01/20 08:44:56;;;;;;;20.47;14.90;;;-3.60;99.90;;;;;;5120883;28;20468;-53
2024/01/20 08:47:23;;;;;;;15.63;12.73;;;-3.50;99.90;;;;;;5120205;28;20735;-51
2024/01/20 08:49:51;;;;;;;15.53;11.40;;;-3.50;99.90;;;;;;5120162;27;20932;-51
2024/01/20 08:52:19;;;;;;;18.30;11.23;;;-3.40;99.90;;;;;;5119954;28;20441;-54
2024/01/20 08:54:46;;;;;;;21.60;11.30;;;-3.20;99.90;;;;;;5120407;28;20465;-53
2024/01/20 08:57:14;;;;;;;16.10;12.07;;;-3.20;99.90;;;;;;5120015;28;20470;-54
2024/01/20 08:59:43;;;;;;;16.43;11.60;;;-3.10;99.90;;;;;;5120160;27;20799;-49
2024/01/20 09:02:11;;;;;;;18.90;11.70;;;-2.90;99.90;;;;;;5119828;28;20449;-52
2024/01/20 09:04:38;;;;;;;14.80;11.33;;;-2.90;99.90;;;;;;5119758;28;20907;-52
2024/01/20 09:07:06;;;;;;;14.90;10.83;;;-2.80;99.90;;;;;;5118458;28;20785;-56
2024/01/20 09:09:35;;;;;;;17.23;11.50;;;-2.70;99.90;;;;;;5118062;28;20494;-55
2024/01/20 09:12:04;;;;;;;15.67;10.90;;;-2.50;99.90;;;;;;5118495;28;20503;-57
2024/01/20 09:14:31;;;;;;;19.60;11.60;;;-2.40;99.90;;;;;;5118875;28;20488;-54
2024/01/20 09:17:02;;;;;;;15.90;10.73;;;-2.40;99.90;;;;;;5118978;28;20737;-51
2024/01/20 09:19:29;;;;;;;15.40;9.80;;;-2.20;99.90;;;;;;5118496;28;20455;-51
2024/01/20 09:21:57;;;;;;;16.70;11.40;;;-2.10;99.90;;;;;;5118873;28;20554;-52
2024/01/20 09:24:25;;;;;;;16.33;11.50;;;-2.00;1.00;;;;;;5118680;28;20555;-51
2024/01/20 09:26:52;;;;;;;13.63;9.83;;;-1.90;1.00;;;;;;5118496;28;20456;-54
2024/01/20 09:29:20;;;;;;;14.53;10.60;;;-1.90;1.00;;;;;;5117640;27;20484;-51
2024/01/20 09:31:47;;;;;;;14.27;9.87;;;-1.80;1.00;;;;;;5119057;28;20752;-52
2024/01/20 09:34:17;;;;;;;14.23;10.50;;;-1.60;1.00;;;;;;5119030;28;20455;-50
2024/01/20 09:36:45;;;;;;;15.20;10.53;;;-1.50;99.90;;;;;;5118960;28;20457;-54
2024/01/20 09:39:12;;;;;;;17.90;9.67;;;-1.30;92.20;;;;;;5119153;28;20554;-52
2024/01/20 09:41:41;;;;;;;15.73;9.73;;;-1.30;1.00;;;;;;5118883;28;20428;-53
2024/01/20 09:44:11;;;;;;;12.30;9.67;;;-1.20;1.00;;;;;;5118760;28;20483;-56
2024/01/20 09:46:38;;;;;;;15.33;9.87;;;-1.10;1.00;;;;;;5117836;28;20458;-55
2024/01/20 09:49:06;;;;;;;16.17;10.53;;;-1.00;1.00;;;;;;5118163;28;20962;-58
2024/01/20 09:51:37;;;;;;;13.47;9.67;;;-0.90;1.00;;;;;;5115795;28;20822;-56
2024/01/20 09:54:05;;;;;;;16.73;9.90;;;-0.70;1.00;;;;;;5115726;28;20485;-56
2024/01/20 09:56:32;;;;;;;17.67;11.33;;;-0.60;1.00;;;;;;5115850;28;20506;-58
2024/01/20 09:59:01;;;;;;;17.50;10.43;;;-0.50;1.00;;;;;;5115240;28;20446;-58
2024/01/20 10:01:29;;;;;;;14.40;9.60;;;-0.50;1.00;;;;;;5116669;28;20560;-60
2024/01/20 10:04:01;;;;;;;14.90;10.40;;;-0.40;1.00;;;;;;5116622;28;20470;-59
2024/01/20 10:06:29;;;;;;;15.20;9.27;;;-0.20;1.00;;;;;;5114486;28;20506;-58
2024/01/20 10:08:58;;;;;;;15.30;10.47;;;-0.10;1.00;;;;;;5115700;28;20809;-58
2024/01/20 10:11:25;;;;;;;13.60;9.67;;;-0.10;1.00;;;;;;5116183;28;20539;-56
2024/01/20 10:13:53;;;;;;;14.10;10.40;;;-0.20;1.00;;;;;;5115797;28;20467;-59
2024/01/20 10:16:21;;;;;;;14.83;8.80;;;0.00;1.00;;;;;;5115050;28;20457;-61
2024/01/20 10:18:49;;;;;;;16.07;10.77;;;0.10;1.00;;;;;;5114692;28;20437;-60
2024/01/20 10:21:17;;;;;;;15.07;8.10;;;0.20;1.00;;;;;;5116178;28;20454;-60
2024/01/20 10:23:46;;;;;;;11.50;8.70;;;0.50;1.00;;;;;;5117796;28;20434;-59
2024/01/20 10:26:15;;;;;;;13.10;8.93;;;0.60;1.00;;;;;;5110926;28;20953;-59
2024/01/20 10:28:43;;;;;;;13.13;8.60;;;0.70;1.00;;;;;;5097286;28;20518;-60
2024/01/20 10:31:11;;;;;;;11.00;8.27;;;0.70;1.00;;;;;;5097695;28;20460;-59
2024/01/20 10:33:42;;;;;;;11.33;8.10;;;0.80;1.00;;;;;;5097803;28;20463;-60
2024/01/20 10:36:12;;;;;;;16.17;8.57;;;0.90;1.00;;;;;;5096842;28;20452;-59
2024/01/20 10:38:40;;;;;;;10.63;7.80;;;1.00;1.00;;;;;;5107566;28;20457;-59
2024/01/20 10:41:09;;;;;;;10.50;8.37;;;1.20;1.00;;;;;;5115509;28;20466;-59
2024/01/20 10:43:46;;;;;;;11.43;7.60;;;1.20;99.90;;;;;;5117689;28;20429;-60
2024/01/20 10:46:23;;;;;;;13.23;8.47;;;1.30;99.90;;;;;;5116599;28;20884;-59
2024/01/20 10:48:54;;;;;;;9.20;7.20;;;1.30;99.90;;;;;;5116482;28;20487;-60
2024/01/20 10:51:27;;;;;;;11.20;7.70;;;1.30;99.90;;;;;;5116596;28;20466;-60
2024/01/20 10:53:56;;;;;;;10.87;7.33;;;1.20;99.90;;;;;;5117577;28;20469;-59
2024/01/20 10:56:24;;;;;;;10.87;6.80;;;1.30;99.90;;;;;;5117360;28;20734;-60
2024/01/20 10:59:04;;;;;;;12.97;9.10;;;1.30;99.90;;;;;;5117286;28;20459;-59
2024/01/20 11:01:32;;;;;;;12.77;7.87;;;1.30;99.90;;;;;;5116666;28;20549;-60
2024/01/20 11:03:59;;;;;;;12.97;8.40;;;1.50;99.90;;;;;;5117035;28;20987;-60
2024/01/20 11:06:27;;;;;;;12.53;7.90;;;1.50;99.90;;;;;;5115880;28;20467;-60
2024/01/20 11:08:55;;;;;;;11.50;8.50;;;1.50;99.90;;;;;;5117127;28;20871;-60
2024/01/20 11:11:27;;;;;;;12.13;8.50;;;1.60;99.90;;;;;;5120842;28;20455;-60
2024/01/20 11:14:04;;;;;;;15.17;9.03;;;1.70;99.90;;;;;;5120574;28;20830;-60
2024/01/20 11:16:32;;;;;;;48.87;22.90;;;1.70;99.90;;;;;;5120273;28;20455;-59
2024/01/20 11:19:08;;;;;;;26.20;14.93;;;1.70;99.90;;;;;;5118332;28;20479;-60
2024/01/20 11:21:36;;;;;;;52.10;22.07;;;1.80;99.90;;;;;;5116773;28;20720;-60
2024/01/20 11:24:04;;;;;;;14.83;9.23;;;2.10;99.90;;;;;;5117606;28;20430;-60
2024/01/20 11:26:35;;;;;;;14.80;10.30;;;2.30;99.90;;;;;;5119548;28;20868;-62
2024/01/20 11:29:06;;;;;;;11.33;7.63;;;2.30;99.90;;;;;;5118510;28;20497;-60
2024/01/20 11:31:34;;;;;;;11.53;8.37;;;2.40;99.90;;;;;;5117730;27;20451;-60
2024/01/20 11:34:04;;;;;;;10.53;8.03;;;2.50;99.90;;;;;;5118091;28;20500;-60
2024/01/20 11:36:33;;;;;;;10.73;7.93;;;2.60;99.90;;;;;;5117137;28;20484;-60
2024/01/20 11:39:02;;;;;;;13.97;9.47;;;2.70;99.90;;;;;;5119069;28;20433;-60
2024/01/20 11:41:30;;;;;;;11.90;8.90;;;2.60;99.90;;;;;;5119378;28;20443;-61
2024/01/20 11:43:58;;;;;;;11.47;9.40;;;2.70;99.90;;;;;;5119233;28;20458;-60
2024/01/20 11:46:27;;;;;;;13.37;9.13;;;2.80;99.90;;;;;;5115614;28;20857;-61
2024/01/20 11:48:54;;;;;;;10.87;7.80;;;2.80;99.90;;;;;;5118163;28;20486;-61
2024/01/20 11:51:22;;;;;;;11.73;8.07;;;3.00;99.90;;;;;;5117756;28;20513;-59
2024/01/20 11:53:50;;;;;;;14.90;7.80;;;2.70;99.90;;;;;;5119762;28;20463;-60
2024/01/20 11:56:17;;;;;;;14.70;8.40;;;2.50;99.90;;;;;;5119115;28;20528;-60
2024/01/20 11:58:46;;;;;;;11.23;7.37;;;2.40;99.90;;;;;;5120133;28;20942;-59
2024/01/20 12:01:14;;;;;;;11.77;8.50;;;2.20;99.90;;;;;;5120324;28;20453;-60
2024/01/20 12:03:45;;;;;;;14.70;8.20;;;2.30;99.90;;;;;;5119957;28;20462;-60
2024/01/20 12:06:15;;;;;;;12.40;8.37;;;2.40;99.90;;;;;;5120095;28;20460;-61
2024/01/20 12:08:44;;;;;;;13.83;8.03;;;2.30;99.90;;;;;;5119641;28;20484;-61
2024/01/20 12:11:19;;;;;;;10.00;7.50;;;2.30;99.90;;;;;;5120347;28;20463;-61
2024/01/20 12:13:46;;;;;;;19.90;8.63;;;2.30;99.90;;;;;;5119774;28;20481;-61
2024/01/20 12:16:14;;;;;;;10.83;8.80;;;2.20;99.90;;;;;;5119631;28;20551;-61
2024/01/20 12:18:45;;;;;;;13.33;8.77;;;2.30;99.90;;;;;;5119757;28;20566;-61
2024/01/20 12:21:12;;;;;;;12.30;7.30;;;2.30;99.90;;;;;;5119524;28;20432;-61
2024/01/20 12:23:40;;;;;;;10.60;7.53;;;2.30;99.90;;;;;;5119703;28;20463;-62
2024/01/20 12:26:12;;;;;;;14.70;7.83;;;2.40;99.90;;;;;;5119491;28;20916;-62
2024/01/20 12:28:41;;;;;;;11.83;7.37;;;2.50;99.90;;;;;;5119238;27;20456;-62
2024/01/20 12:31:09;;;;;;;11.83;7.97;;;2.50;99.90;;;;;;5119266;28;20512;-62
2024/01/20 12:33:37;;;;;;;14.67;8.60;;;2.40;99.90;;;;;;5119136;28;20463;-62
2024/01/20 12:36:06;;;;;;;11.80;7.77;;;2.40;99.90;;;;;;5118617;28;20460;-60